首页
METAR-TAF:

METAR-TAF

机场 :

Lamoni Municipal Airport

Lamoni, 艾奥瓦州, 美国

纬度: 40-37-50N, 经度: 093-54-03W, 海拔: 344米

当前天气观测

该预报发布于1小时和8分钟前的04:53 UTC
风速13节,风向南转西南,有时为20节阵风
温度 29°C
湿度 66%
气压 1008 hPa
能見度: 16.1公里
天空无云

METAR: KLWD 250453Z AUTO 21013G20KT 10SM CLR 29/22 A2978 RMK AO2 SLP072 T02890222 $

时间: 01:01 (06:01 UTC)


TAF: 丢失

超过4000个机场的气象观测和天气预报(METAR&TAF报告)。

可查询的气象台以黄色和红色小点在地图上表示。

将鼠标移到小点上方,可查看气象台名称。

然后点击查看天气观测和预报。

如需切换地图:点击带黑十字的绿色按钮放大地图;点击带横线的绿色按钮缩小地图;或者点击绿色箭头查看邻近地区的地图。


METAR-TAF: